Time,TemperatureF,DewpointF,PressureIn,WindDirection,WindDirectionDegrees,WindSpeedMPH,WindSpeedGustMPH,Humidity,HourlyPrecipIn,Conditions,Clouds,dailyrainin,SoftwareType,DateUTC
2013-06-17 00:00:00,67.4,66.8,30.14,SSW,196,0.0,4.0,98,0.00,,,0.00,Weather View 32 v70,2013-06-17 04:00:00,
2013-06-17 00:01:00,67.4,66.8,30.14,SSW,196,0.0,4.0,98,0.00,,,0.00,Weather View 32 v70,2013-06-17 04:01:00,
2013-06-17 00:02:00,67.3,66.7,30.14,SSW,196,0.0,4.0,98,0.00,,,0.00,Weather View 32 v70,2013-06-17 04:02:00,
2013-06-17 00:03:00,67.3,66.7,30.14,SSW,196,0.0,4.0,98,0.00,,,0.00,Weather View 32 v70,2013-06-17 04:03:00,
2013-06-17 00:08:00,67.3,67.0,30.14,South,191,0.0,4.0,99,0.00,,,0.00,Weather View 32 v70,2013-06-17 04:08:00,
2013-06-17 00:13:00,67.3,67.0,30.14,South,189,0.0,4.0,99,0.00,,,0.00,Weather View 32 v70,2013-06-17 04:13:00,
2013-06-17 00:18:00,67.3,67.0,30.14,South,187,0.0,4.0,99,0.00,,,0.00,Weather View 32 v70,2013-06-17 04:18:00,
2013-06-17 00:23:00,67.3,67.3,30.15,South,187,0.0,4.0,100,0.00,,,0.00,Weather View 32 v70,2013-06-17 04:23:00,
2013-06-17 00:28:00,67.3,67.3,30.15,ESE,121,0.0,4.0,100,0.00,,,0.00,Weather View 32 v70,2013-06-17 04:28:00,
2013-06-17 00:33:00,67.3,67.3,30.15,SSE,167,0.0,4.0,100,0.00,,,0.00,Weather View 32 v70,2013-06-17 04:33:00,
2013-06-17 00:38:00,67.3,67.3,30.15,South,185,0.0,4.0,100,0.00,,,0.00,Weather View 32 v70,2013-06-17 04:38:00,
2013-06-17 00:43:00,67.4,67.4,30.15,SW,233,0.0,4.0,100,0.00,,,0.00,Weather View 32 v70,2013-06-17 04:43:00,
2013-06-17 00:48:00,67.3,67.3,30.15,SW,233,0.0,4.0,100,0.00,,,0.00,Weather View 32 v70,2013-06-17 04:48:00,
2013-06-17 00:53:00,67.3,67.3,30.15,SW,233,0.0,4.0,100,0.00,,,0.00,Weather View 32 v70,2013-06-17 04:53:00,
2013-06-17 00:58:00,67.4,67.4,30.15,SW,233,0.0,4.0,100,0.00,,,0.00,Weather View 32 v70,2013-06-17 04:58:00,
2013-06-17 01:03:00,67.4,67.4,30.14,SSW,200,0.0,4.0,100,0.00,,,0.00,Weather View 32 v70,2013-06-17 05:03:00,
2013-06-17 01:08:00,67.4,67.4,30.15,SSW,200,0.0,4.0,100,0.00,,,0.00,Weather View 32 v70,2013-06-17 05:08:00,
2013-06-17 01:13:00,67.4,67.4,30.15,SSW,200,0.0,4.0,100,0.00,,,0.00,Weather View 32 v70,2013-06-17 05:13:00,
2013-06-17 01:18:00,67.4,67.4,30.15,SSW,204,0.0,4.0,100,0.00,,,0.00,Weather View 32 v70,2013-06-17 05:18:00,
2013-06-17 01:23:00,67.4,67.4,30.15,SW,234,0.0,4.0,100,0.00,,,0.00,Weather View 32 v70,2013-06-17 05:23:00,
2013-06-17 01:28:00,67.4,67.4,30.15,SW,234,0.0,4.0,100,0.00,,,0.00,Weather View 32 v70,2013-06-17 05:28:00,
2013-06-17 01:33:00,67.4,67.4,30.14,SSW,202,0.0,4.0,100,0.00,,,0.00,Weather View 32 v70,2013-06-17 05:33:00,
2013-06-17 01:38:00,67.3,67.3,30.14,South,185,0.0,4.0,100,0.00,,,0.00,Weather View 32 v70,2013-06-17 05:38:00,
2013-06-17 01:43:00,67.3,67.3,30.14,SSW,192,0.0,3.0,100,0.00,,,0.00,Weather View 32 v70,2013-06-17 05:43:00,
2013-06-17 01:48:00,67.2,67.2,30.14,SSW,192,0.0,3.0,100,0.00,,,0.00,Weather View 32 v70,2013-06-17 05:48:00,
2013-06-17 01:53:00,67.1,67.1,30.14,SSW,192,0.0,3.0,100,0.00,,,0.00,Weather View 32 v70,2013-06-17 05:53:00,
2013-06-17 01:58:00,67.1,67.1,30.14,SSW,209,0.0,3.0,100,0.00,,,0.00,Weather View 32 v70,2013-06-17 05:58:00,
2013-06-17 02:03:00,67.0,67.0,30.14,South,190,0.0,2.0,100,0.00,,,0.00,Weather View 32 v70,2013-06-17 06:03:00,
2013-06-17 02:08:00,67.0,67.0,30.14,SSW,199,0.0,2.0,100,0.00,,,0.00,Weather View 32 v70,2013-06-17 06:08:00,
2013-06-17 02:13:00,66.9,66.9,30.13,SSW,201,0.0,2.0,100,0.00,,,0.00,Weather View 32 v70,2013-06-17 06:13:00,
2013-06-17 02:18:00,66.9,66.9,30.14,SSW,200,0.0,2.0,100,0.00,,,0.00,Weather View 32 v70,2013-06-17 06:18:00,
2013-06-17 02:23:00,66.7,66.7,30.13,SSW,199,0.0,2.0,100,0.00,,,0.00,Weather View 32 v70,2013-06-17 06:23:00,
2013-06-17 02:28:00,66.6,66.6,30.13,SSW,199,0.0,2.0,100,0.00,,,0.00,Weather View 32 v70,2013-06-17 06:28:00,
2013-06-17 02:33:00,66.5,66.5,30.13,South,176,0.0,2.0,100,0.00,,,0.00,Weather View 32 v70,2013-06-17 06:33:00,
2013-06-17 02:38:00,66.5,66.5,30.13,South,182,0.0,2.0,100,0.00,,,0.00,Weather View 32 v70,2013-06-17 06:38:00,
2013-06-17 02:43:00,66.3,66.3,30.13,South,183,0.0,2.0,100,0.00,,,0.00,Weather View 32 v70,2013-06-17 06:43:00,
2013-06-17 02:48:00,66.2,66.2,30.13,South,184,0.0,2.0,100,0.00,,,0.00,Weather View 32 v70,2013-06-17 06:48:00,
2013-06-17 02:53:00,66.0,66.0,30.13,SSW,197,0.0,2.0,100,0.00,,,0.00,Weather View 32 v70,2013-06-17 06:53:00,
2013-06-17 02:58:00,65.9,65.9,30.13,SSW,196,0.0,1.0,100,0.00,,,0.00,Weather View 32 v70,2013-06-17 06:58:00,
2013-06-17 03:03:00,65.9,65.9,30.13,South,191,0.0,1.0,100,0.00,,,0.00,Weather View 32 v70,2013-06-17 07:03:00,
2013-06-17 03:08:00,65.8,65.8,30.12,South,191,0.0,0.0,100,0.00,,,0.00,Weather View 32 v70,2013-06-17 07:08:00,
2013-06-17 03:13:00,65.6,65.6,30.12,SSE,156,0.0,3.0,100,0.00,,,0.00,Weather View 32 v70,2013-06-17 07:13:00,
2013-06-17 03:18:00,65.5,65.5,30.12,SSW,197,0.0,3.0,100,0.00,,,0.00,Weather View 32 v70,2013-06-17 07:18:00,
2013-06-17 03:23:00,65.5,65.5,30.12,SSW,194,0.0,3.0,100,0.00,,,0.00,Weather View 32 v70,2013-06-17 07:23:00,
2013-06-17 03:28:00,65.4,65.4,30.12,SSW,192,0.0,3.0,100,0.00,,,0.00,Weather View 32 v70,2013-06-17 07:28:00,
2013-06-17 03:33:00,65.3,65.3,30.12,SSW,192,0.0,3.0,100,0.00,,,0.00,Weather View 32 v70,2013-06-17 07:33:00,
2013-06-17 03:38:00,65.2,65.2,30.12,South,191,0.0,3.0,100,0.00,,,0.00,Weather View 32 v70,2013-06-17 07:38:00,
2013-06-17 03:43:00,65.2,65.2,30.12,South,191,0.0,3.0,100,0.00,,,0.00,Weather View 32 v70,2013-06-17 07:43:00,
2013-06-17 03:48:00,65.1,65.1,30.12,South,191,0.0,3.0,100,0.00,,,0.00,Weather View 32 v70,2013-06-17 07:48:00,
2013-06-17 03:53:00,65.0,65.0,30.12,South,191,0.0,3.0,100,0.00,,,0.00,Weather View 32 v70,2013-06-17 07:53:00,
2013-06-17 03:58:00,65.0,65.0,30.12,South,191,0.0,3.0,100,0.00,,,0.00,Weather View 32 v70,2013-06-17 07:58:00,
2013-06-17 04:03:00,65.0,65.0,30.12,South,191,0.0,3.0,100,0.00,,,0.00,Weather View 32 v70,2013-06-17 08:03:00,
2013-06-17 04:08:00,64.9,64.9,30.12,South,191,0.0,3.0,100,0.00,,,0.00,Weather View 32 v70,2013-06-17 08:08:00,
2013-06-17 04:14:00,64.8,64.8,30.12,South,191,0.0,0.0,100,0.00,,,0.00,Weather View 32 v70,2013-06-17 08:14:00,
2013-06-17 04:19:00,64.7,64.7,30.11,South,191,0.0,0.0,100,0.00,,,0.00,Weather View 32 v70,2013-06-17 08:19:00,
2013-06-17 04:24:00,64.5,64.5,30.12,South,191,0.0,0.0,100,0.00,,,0.00,Weather View 32 v70,2013-06-17 08:24:00,
2013-06-17 04:29:00,64.4,64.4,30.12,South,191,0.0,0.0,100,0.00,,,0.00,Weather View 32 v70,2013-06-17 08:29:00,
2013-06-17 04:34:00,64.4,64.4,30.12,SSW,193,0.0,0.0,100,0.00,,,0.00,Weather View 32 v70,2013-06-17 08:34:00,
2013-06-17 04:39:00,64.1,64.1,30.12,SSW,193,0.0,0.0,100,0.00,,,0.00,Weather View 32 v70,2013-06-17 08:39:00,
2013-06-17 04:44:00,64.0,64.0,30.12,SSW,193,0.0,0.0,100,0.00,,,0.00,Weather View 32 v70,2013-06-17 08:44:00,
2013-06-17 04:49:00,63.9,63.9,30.12,SSW,193,0.0,0.0,100,0.00,,,0.00,Weather View 32 v70,2013-06-17 08:49:00,
2013-06-17 04:54:00,63.8,63.8,30.11,SSW,193,0.0,0.0,100,0.00,,,0.00,Weather View 32 v70,2013-06-17 08:54:00,
2013-06-17 04:59:00,63.7,63.7,30.12,SSW,192,0.0,0.0,100,0.00,,,0.00,Weather View 32 v70,2013-06-17 08:59:00,
2013-06-17 05:04:00,63.6,63.6,30.12,SSW,192,0.0,0.0,100,0.00,,,0.00,Weather View 32 v70,2013-06-17 09:04:00,
2013-06-17 05:09:00,63.5,63.5,30.11,SSW,192,0.0,0.0,100,0.00,,,0.00,Weather View 32 v70,2013-06-17 09:09:00,
2013-06-17 05:14:00,63.5,63.5,30.11,SSW,192,0.0,0.0,100,0.00,,,0.00,Weather View 32 v70,2013-06-17 09:14:00,
2013-06-17 05:19:00,63.4,63.4,30.11,SSW,192,0.0,0.0,100,0.00,,,0.00,Weather View 32 v70,2013-06-17 09:19:00,
2013-06-17 05:24:00,63.4,63.4,30.11,SSW,192,0.0,0.0,100,0.00,,,0.00,Weather View 32 v70,2013-06-17 09:24:00,
2013-06-17 05:29:00,63.3,63.3,30.11,SSW,192,0.0,0.0,100,0.00,,,0.00,Weather View 32 v70,2013-06-17 09:29:00,
2013-06-17 05:34:00,63.3,63.3,30.11,SSW,192,0.0,0.0,100,0.00,,,0.00,Weather View 32 v70,2013-06-17 09:34:00,
2013-06-17 05:39:00,63.3,63.3,30.11,SSW,192,0.0,0.0,100,0.00,,,0.00,Weather View 32 v70,2013-06-17 09:39:00,
2013-06-17 05:44:00,63.3,63.3,30.11,SSW,192,0.0,0.0,100,0.00,,,0.00,Weather View 32 v70,2013-06-17 09:44:00,
2013-06-17 05:49:00,63.2,63.2,30.11,SSW,192,0.0,0.0,100,0.00,,,0.00,Weather View 32 v70,2013-06-17 09:49:00,
2013-06-17 05:54:00,63.1,63.1,30.11,SSW,192,0.0,0.0,100,0.00,,,0.00,Weather View 32 v70,2013-06-17 09:54:00,
2013-06-17 05:59:00,63.0,63.0,30.11,South,191,0.0,0.0,100,0.00,,,0.00,Weather View 32 v70,2013-06-17 09:59:00,
2013-06-17 06:04:00,63.0,63.0,30.11,South,191,0.0,0.0,100,0.00,,,0.00,Weather View 32 v70,2013-06-17 10:04:00,
2013-06-17 06:09:00,62.9,62.9,30.11,South,191,0.0,0.0,100,0.00,,,0.00,Weather View 32 v70,2013-06-17 10:09:00,
2013-06-17 06:14:00,62.9,62.9,30.11,South,191,0.0,0.0,100,0.00,,,0.00,Weather View 32 v70,2013-06-17 10:14:00,
2013-06-17 06:19:00,62.9,62.9,30.11,South,191,0.0,0.0,100,0.00,,,0.00,Weather View 32 v70,2013-06-17 10:19:00,
2013-06-17 06:24:00,62.9,62.9,30.11,South,191,0.0,0.0,100,0.00,,,0.00,Weather View 32 v70,2013-06-17 10:24:00,
2013-06-17 06:29:00,62.9,62.9,30.11,South,191,0.0,0.0,100,0.00,,,0.00,Weather View 32 v70,2013-06-17 10:29:00,
2013-06-17 06:34:00,62.9,62.9,30.11,South,191,0.0,0.0,100,0.00,,,0.00,Weather View 32 v70,2013-06-17 10:34:00,
2013-06-17 06:39:00,62.9,62.9,30.10,South,191,0.0,0.0,100,0.00,,,0.00,Weather View 32 v70,2013-06-17 10:39:00,
2013-06-17 06:44:00,62.8,62.8,30.11,South,191,0.0,0.0,100,0.00,,,0.00,Weather View 32 v70,2013-06-17 10:44:00,
2013-06-17 06:49:00,62.8,62.8,30.10,South,191,0.0,0.0,100,0.00,,,0.00,Weather View 32 v70,2013-06-17 10:49:00,
2013-06-17 06:54:00,62.9,62.9,30.10,South,189,0.0,0.0,100,0.00,,,0.00,Weather View 32 v70,2013-06-17 10:54:00,
2013-06-17 06:59:00,63.0,63.0,30.11,South,189,0.0,0.0,100,0.00,,,0.00,Weather View 32 v70,2013-06-17 10:59:00,
2013-06-17 07:04:00,63.0,63.0,30.11,South,189,0.0,0.0,100,0.00,,,0.00,Weather View 32 v70,2013-06-17 11:04:00,
2013-06-17 07:09:00,63.1,63.1,30.10,South,189,0.0,0.0,100,0.00,,,0.00,Weather View 32 v70,2013-06-17 11:09:00,
2013-06-17 07:14:00,63.3,63.3,30.11,South,189,0.0,0.0,100,0.00,,,0.00,Weather View 32 v70,2013-06-17 11:14:00,
2013-06-17 07:19:00,63.4,63.4,30.11,South,189,0.0,0.0,100,0.00,,,0.00,Weather View 32 v70,2013-06-17 11:19:00,
2013-06-17 07:24:00,63.5,63.5,30.11,South,190,0.0,0.0,100,0.00,,,0.00,Weather View 32 v70,2013-06-17 11:24:00,
2013-06-17 07:29:00,63.6,63.6,30.11,South,190,0.0,0.0,100,0.00,,,0.00,Weather View 32 v70,2013-06-17 11:29:00,
2013-06-17 07:34:00,63.8,63.8,30.11,South,190,0.0,0.0,100,0.00,,,0.00,Weather View 32 v70,2013-06-17 11:34:00,
2013-06-17 07:39:00,63.9,63.9,30.11,South,190,0.0,0.0,100,0.00,,,0.00,Weather View 32 v70,2013-06-17 11:39:00,
2013-06-17 07:44:00,64.0,64.0,30.12,South,181,0.0,0.0,100,0.00,,,0.00,Weather View 32 v70,2013-06-17 11:44:00,
2013-06-17 07:49:00,64.1,64.1,30.12,SSW,203,0.0,0.0,100,0.00,,,0.00,Weather View 32 v70,2013-06-17 11:49:00,
2013-06-17 07:54:00,64.3,64.3,30.12,SSW,203,0.0,0.0,100,0.00,,,0.00,Weather View 32 v70,2013-06-17 11:54:00,
2013-06-17 07:59:00,64.4,64.4,30.11,SSW,203,0.0,0.0,100,0.00,,,0.00,Weather View 32 v70,2013-06-17 11:59:00,
2013-06-17 08:04:00,64.6,64.6,30.11,SSW,203,0.0,0.0,100,0.00,,,0.00,Weather View 32 v70,2013-06-17 12:04:00,
2013-06-17 08:09:00,64.8,64.8,30.11,SSW,202,0.0,0.0,100,0.00,,,0.00,Weather View 32 v70,2013-06-17 12:09:00,
2013-06-17 08:14:00,65.1,65.1,30.11,SSW,199,0.0,0.0,100,0.00,,,0.00,Weather View 32 v70,2013-06-17 12:14:00,
2013-06-17 08:19:00,65.3,65.3,30.11,SSW,199,0.0,0.0,100,0.00,,,0.00,Weather View 32 v70,2013-06-17 12:19:00,
2013-06-17 08:24:00,65.4,65.4,30.11,SSW,196,0.0,0.0,100,0.00,,,0.00,Weather View 32 v70,2013-06-17 12:24:00,
2013-06-17 08:29:00,65.8,65.8,30.11,South,173,0.0,0.0,100,0.00,,,0.00,Weather View 32 v70,2013-06-17 12:29:00,
2013-06-17 08:34:00,66.0,66.0,30.11,South,180,1.0,2.0,100,0.00,,,0.00,Weather View 32 v70,2013-06-17 12:34:00,
2013-06-17 08:39:00,66.2,66.2,30.10,SSE,153,0.0,2.0,100,0.00,,,0.00,Weather View 32 v70,2013-06-17 12:39:00,
2013-06-17 08:44:00,66.4,66.4,30.10,SSE,153,0.0,2.0,100,0.00,,,0.00,Weather View 32 v70,2013-06-17 12:44:00,
2013-06-17 08:49:00,66.5,66.5,30.11,SSE,153,0.0,2.0,100,0.00,,,0.00,Weather View 32 v70,2013-06-17 12:49:00,
2013-06-17 08:54:00,66.6,66.6,30.11,SE,145,0.0,2.0,100,0.00,,,0.00,Weather View 32 v70,2013-06-17 12:54:00,
2013-06-17 08:59:00,66.7,66.7,30.11,SE,146,0.0,2.0,100,0.00,,,0.00,Weather View 32 v70,2013-06-17 12:59:00,
2013-06-17 09:04:00,66.8,66.8,30.11,South,185,0.0,2.0,100,0.00,,,0.00,Weather View 32 v70,2013-06-17 13:04:00,
2013-06-17 09:09:00,66.8,66.8,30.11,SE,128,0.0,4.0,100,0.00,,,0.00,Weather View 32 v70,2013-06-17 13:09:00,
2013-06-17 09:14:00,67.0,67.0,30.11,South,175,0.0,4.0,100,0.00,,,0.00,Weather View 32 v70,2013-06-17 13:14:00,
2013-06-17 09:19:00,67.2,66.9,30.11,South,175,0.0,4.0,99,0.00,,,0.00,Weather View 32 v70,2013-06-17 13:19:00,
2013-06-17 09:24:00,67.2,66.9,30.11,SSE,155,0.0,4.0,99,0.00,,,0.00,Weather View 32 v70,2013-06-17 13:24:00,
2013-06-17 09:29:00,67.4,67.1,30.11,SSE,159,0.0,4.0,99,0.00,,,0.00,Weather View 32 v70,2013-06-17 13:29:00,
2013-06-17 09:34:00,67.5,66.9,30.11,SSE,159,0.0,4.0,98,0.00,,,0.00,Weather View 32 v70,2013-06-17 13:34:00,
2013-06-17 09:39:00,67.7,67.1,30.11,SSE,159,0.0,4.0,98,0.00,,,0.00,Weather View 32 v70,2013-06-17 13:39:00,
2013-06-17 09:44:00,67.8,66.9,30.11,SSE,159,0.0,4.0,97,0.00,,,0.00,Weather View 32 v70,2013-06-17 13:44:00,
2013-06-17 09:49:00,67.9,67.0,30.11,SSE,159,0.0,4.0,97,0.00,,,0.00,Weather View 32 v70,2013-06-17 13:49:00,
2013-06-17 09:54:00,68.1,66.9,30.11,SSE,162,0.0,4.0,96,0.00,,,0.00,Weather View 32 v70,2013-06-17 13:54:00,
2013-06-17 09:59:00,68.4,67.2,30.11,SE,144,0.0,4.0,96,0.00,,,0.00,Weather View 32 v70,2013-06-17 13:59:00,
2013-06-17 10:04:00,68.9,67.7,30.11,SE,144,0.0,4.0,96,0.00,,,0.00,Weather View 32 v70,2013-06-17 14:04:00,
2013-06-17 10:09:00,69.2,67.4,30.10,SSE,156,0.0,0.0,94,0.00,,,0.00,Weather View 32 v70,2013-06-17 14:09:00,
2013-06-17 10:14:00,69.4,67.3,30.11,NNE,21,0.0,2.0,93,0.00,,,0.00,Weather View 32 v70,2013-06-17 14:14:00,
2013-06-17 10:19:00,69.8,68.0,30.11,NNE,23,0.0,2.0,94,0.00,,,0.00,Weather View 32 v70,2013-06-17 14:19:00,
2013-06-17 10:24:00,70.1,68.0,30.11,NNE,25,0.0,2.0,93,0.00,,,0.00,Weather View 32 v70,2013-06-17 14:24:00,
2013-06-17 10:29:00,70.1,67.7,30.11,NNE,24,0.0,2.0,92,0.00,,,0.00,Weather View 32 v70,2013-06-17 14:29:00,
2013-06-17 10:34:00,70.1,67.7,30.10,NNE,20,0.0,2.0,92,0.00,,,0.00,Weather View 32 v70,2013-06-17 14:34:00,
2013-06-17 10:39:00,70.4,67.6,30.10,NE,47,0.0,2.0,91,0.00,,,0.00,Weather View 32 v70,2013-06-17 14:39:00,
2013-06-17 10:44:00,70.7,67.9,30.10,NE,50,0.0,2.0,91,0.00,,,0.00,Weather View 32 v70,2013-06-17 14:44:00,
2013-06-17 10:49:00,70.8,67.7,30.10,North,358,0.0,2.0,90,0.00,,,0.00,Weather View 32 v70,2013-06-17 14:49:00,
2013-06-17 10:54:00,71.2,68.4,30.10,East,94,0.0,2.0,91,0.00,,,0.00,Weather View 32 v70,2013-06-17 14:54:00,
2013-06-17 10:59:00,71.5,68.1,30.10,NE,46,0.0,2.0,89,0.00,,,0.00,Weather View 32 v70,2013-06-17 14:59:00,
2013-06-17 11:04:00,72.1,68.3,30.10,NNW,348,0.0,2.0,88,0.00,,,0.00,Weather View 32 v70,2013-06-17 15:04:00,
2013-06-17 11:09:00,73.1,69.3,30.10,NE,35,0.0,2.0,88,0.00,,,0.00,Weather View 32 v70,2013-06-17 15:09:00,
2013-06-17 11:14:00,73.5,69.0,30.10,South,172,0.0,0.0,86,0.00,,,0.00,Weather View 32 v70,2013-06-17 15:14:00,
2013-06-17 11:19:00,74.1,68.6,30.10,SW,228,0.0,0.0,83,0.00,,,0.00,Weather View 32 v70,2013-06-17 15:19:00,
2013-06-17 11:24:00,74.2,68.7,30.11,NNW,346,0.0,4.0,83,0.00,,,0.00,Weather View 32 v70,2013-06-17 15:24:00,
2013-06-17 11:30:00,74.1,68.6,30.10,NE,34,0.0,4.0,83,0.00,,,0.00,Weather View 32 v70,2013-06-17 15:30:00,
2013-06-17 11:35:00,74.4,68.5,30.11,NE,54,0.0,4.0,82,0.00,,,0.00,Weather View 32 v70,2013-06-17 15:35:00,
2013-06-17 11:40:00,74.3,69.1,30.11,North,9,0.0,4.0,84,0.00,,,0.00,Weather View 32 v70,2013-06-17 15:40:00,
2013-06-17 11:45:00,73.9,68.0,30.10,North,9,0.0,4.0,82,0.00,,,0.00,Weather View 32 v70,2013-06-17 15:45:00,
2013-06-17 11:50:00,73.9,68.0,30.10,NNW,329,0.0,4.0,82,0.00,,,0.00,Weather View 32 v70,2013-06-17 15:50:00,
2013-06-17 11:55:00,73.7,67.8,30.10,North,359,0.0,4.0,82,0.00,,,0.00,Weather View 32 v70,2013-06-17 15:55:00,
2013-06-17 12:00:00,73.6,67.7,30.11,North,7,0.0,4.0,82,0.00,,,0.00,Weather View 32 v70,2013-06-17 16:00:00,
2013-06-17 12:05:00,73.6,67.7,30.10,North,6,0.0,4.0,82,0.00,,,0.00,Weather View 32 v70,2013-06-17 16:05:00,
2013-06-17 12:10:00,73.8,67.6,30.10,NNE,26,0.0,4.0,81,0.00,,,0.00,Weather View 32 v70,2013-06-17 16:10:00,
2013-06-17 12:15:00,74.0,67.4,30.10,North,352,0.0,4.0,80,0.00,,,0.00,Weather View 32 v70,2013-06-17 16:15:00,
2013-06-17 12:20:00,74.4,67.4,30.10,NNE,23,0.0,4.0,79,0.00,,,0.00,Weather View 32 v70,2013-06-17 16:20:00,
2013-06-17 12:25:00,75.2,68.2,30.10,North,356,5.0,5.0,79,0.00,,,0.00,Weather View 32 v70,2013-06-17 16:25:00,
2013-06-17 12:30:00,75.3,67.6,30.10,NNW,339,3.0,5.0,77,0.00,,,0.00,Weather View 32 v70,2013-06-17 16:30:00,
2013-06-17 12:35:00,75.2,67.8,30.10,North,353,2.0,6.0,78,0.00,,,0.00,Weather View 32 v70,2013-06-17 16:35:00,
2013-06-17 12:40:00,75.5,68.1,30.10,NNW,335,0.0,6.0,78,0.00,,,0.00,Weather View 32 v70,2013-06-17 16:40:00,
2013-06-17 12:45:00,76.1,68.3,30.10,NE,54,0.0,6.0,77,0.00,,,0.00,Weather View 32 v70,2013-06-17 16:45:00,
2013-06-17 12:50:00,76.3,67.8,30.10,NNW,339,0.0,6.0,75,0.00,,,0.00,Weather View 32 v70,2013-06-17 16:50:00,
2013-06-17 12:55:00,77.0,68.0,30.10,SSW,196,1.0,6.0,74,0.00,,,0.00,Weather View 32 v70,2013-06-17 16:55:00,
2013-06-17 13:00:00,77.3,68.3,30.10,North,349,2.0,6.0,74,0.00,,,0.00,Weather View 32 v70,2013-06-17 17:00:00,
2013-06-17 13:05:00,77.2,67.8,30.10,NW,326,2.0,6.0,73,0.00,,,0.00,Weather View 32 v70,2013-06-17 17:05:00,
2013-06-17 13:10:00,77.2,68.2,30.11,NNE,16,0.0,6.0,74,0.00,,,0.00,Weather View 32 v70,2013-06-17 17:10:00,
2013-06-17 13:15:00,76.8,68.6,30.11,NNE,15,0.0,6.0,76,0.00,,,0.00,Weather View 32 v70,2013-06-17 17:15:00,
2013-06-17 13:20:00,75.9,68.5,30.11,NNE,15,0.0,6.0,78,0.00,,,0.00,Weather View 32 v70,2013-06-17 17:20:00,
2013-06-17 13:25:00,75.1,68.8,30.10,NNE,15,0.0,6.0,81,0.00,,,0.00,Weather View 32 v70,2013-06-17 17:25:00,
2013-06-17 13:30:00,74.5,69.0,30.11,West,264,0.0,6.0,83,0.00,,,0.00,Weather View 32 v70,2013-06-17 17:30:00,
2013-06-17 13:35:00,74.1,68.6,30.11,WNW,285,0.0,5.0,83,0.00,,,0.00,Weather View 32 v70,2013-06-17 17:35:00,
2013-06-17 13:40:00,73.6,68.4,30.11,SW,235,0.0,5.0,84,0.00,,,0.00,Weather View 32 v70,2013-06-17 17:40:00,
2013-06-17 13:45:00,73.1,67.6,30.11,North,356,0.0,5.0,83,0.00,,,0.00,Weather View 32 v70,2013-06-17 17:45:00,
2013-06-17 13:50:00,72.5,68.4,30.12,SSW,199,0.0,5.0,87,0.00,,,0.00,Weather View 32 v70,2013-06-17 17:50:00,
2013-06-17 13:55:00,71.5,67.7,30.12,South,178,0.0,5.0,88,0.00,,,0.00,Weather View 32 v70,2013-06-17 17:55:00,
2013-06-17 14:00:00,70.5,67.1,30.13,WNW,295,0.0,5.0,89,0.00,,,0.00,Weather View 32 v70,2013-06-17 18:00:00,
2013-06-17 14:05:00,69.7,67.3,30.12,SW,232,0.0,5.0,92,0.00,,,0.00,Weather View 32 v70,2013-06-17 18:05:00,
2013-06-17 14:10:00,69.1,67.0,30.12,WNW,292,0.0,5.0,93,0.00,,,0.00,Weather View 32 v70,2013-06-17 18:10:00,
2013-06-17 14:15:00,68.6,67.1,30.12,North,349,0.0,5.0,95,0.00,,,0.00,Weather View 32 v70,2013-06-17 18:15:00,
2013-06-17 14:20:00,68.2,67.0,30.12,West,280,0.0,5.0,96,0.00,,,0.00,Weather View 32 v70,2013-06-17 18:20:00,
2013-06-17 14:25:00,68.0,67.1,30.12,West,280,0.0,5.0,97,0.00,,,0.00,Weather View 32 v70,2013-06-17 18:25:00,
2013-06-17 14:30:00,67.9,67.3,30.11,West,280,0.0,5.0,98,0.00,,,0.00,Weather View 32 v70,2013-06-17 18:30:00,
2013-06-17 14:35:00,68.0,67.7,30.10,West,280,0.0,5.0,99,0.00,,,0.00,Weather View 32 v70,2013-06-17 18:35:00,
2013-06-17 14:40:00,68.2,67.9,30.10,West,280,0.0,5.0,99,0.00,,,0.00,Weather View 32 v70,2013-06-17 18:40:00,
2013-06-17 14:45:00,68.4,68.1,30.09,West,280,0.0,5.0,99,0.00,,,0.00,Weather View 32 v70,2013-06-17 18:45:00,
2013-06-17 14:50:00,68.7,68.4,30.09,ENE,70,0.0,5.0,99,0.00,,,0.00,Weather View 32 v70,2013-06-17 18:50:00,
2013-06-17 14:55:00,69.3,69.3,30.08,West,273,0.0,5.0,100,0.00,,,0.00,Weather View 32 v70,2013-06-17 18:55:00,
2013-06-17 15:00:00,69.7,69.1,30.08,SSE,153,0.0,5.0,98,0.00,,,0.00,Weather View 32 v70,2013-06-17 19:00:00,
2013-06-17 15:05:00,70.2,69.0,30.08,East,98,0.0,4.0,96,0.00,,,0.00,Weather View 32 v70,2013-06-17 19:05:00,
2013-06-17 15:10:00,70.6,69.4,30.07,NNE,15,0.0,0.0,96,0.00,,,0.00,Weather View 32 v70,2013-06-17 19:10:00,
2013-06-17 15:15:00,71.2,70.0,30.07,NE,39,0.0,0.0,96,0.00,,,0.00,Weather View 32 v70,2013-06-17 19:15:00,
2013-06-17 15:20:00,71.2,68.4,30.07,NE,41,0.0,5.0,91,0.00,,,0.00,Weather View 32 v70,2013-06-17 19:20:00,
2013-06-17 15:25:00,71.9,69.1,30.06,East,84,0.0,5.0,91,0.00,,,0.00,Weather View 32 v70,2013-06-17 19:25:00,
2013-06-17 15:30:00,72.5,70.0,30.06,East,79,0.0,5.0,92,0.00,,,0.00,Weather View 32 v70,2013-06-17 19:30:00,
2013-06-17 15:35:00,73.1,70.6,30.06,NNE,24,0.0,5.0,92,0.00,,,0.00,Weather View 32 v70,2013-06-17 19:35:00,
2013-06-17 15:40:00,73.5,69.7,30.06,NE,51,0.0,5.0,88,0.00,,,0.00,Weather View 32 v70,2013-06-17 19:40:00,
2013-06-17 15:45:00,73.8,70.0,30.06,SE,133,0.0,5.0,88,0.00,,,0.00,Weather View 32 v70,2013-06-17 19:45:00,
2013-06-17 15:50:00,74.2,70.1,30.06,North,356,2.0,5.0,87,0.00,,,0.00,Weather View 32 v70,2013-06-17 19:50:00,
2013-06-17 15:55:00,74.5,69.3,30.06,North,353,0.0,5.0,84,0.00,,,0.00,Weather View 32 v70,2013-06-17 19:55:00,
2013-06-17 16:00:00,75.2,70.0,30.06,NE,55,0.0,5.0,84,0.00,,,0.00,Weather View 32 v70,2013-06-17 20:00:00,
2013-06-17 16:05:00,75.4,68.4,30.06,NNE,15,0.0,5.0,79,0.00,,,0.00,Weather View 32 v70,2013-06-17 20:05:00,
2013-06-17 16:10:00,75.8,69.5,30.06,East,96,0.0,5.0,81,0.00,,,0.00,Weather View 32 v70,2013-06-17 20:10:00,
2013-06-17 16:15:00,76.7,70.8,30.06,East,94,0.0,5.0,82,0.00,,,0.00,Weather View 32 v70,2013-06-17 20:15:00,
2013-06-17 16:20:00,76.9,67.9,30.06,South,183,0.0,2.0,74,0.00,,,0.00,Weather View 32 v70,2013-06-17 20:20:00,
2013-06-17 16:25:00,77.1,67.7,30.05,ESE,121,0.0,2.0,73,0.00,,,0.00,Weather View 32 v70,2013-06-17 20:25:00,
2013-06-17 16:30:00,77.2,69.0,30.05,East,85,0.0,2.0,76,0.00,,,0.00,Weather View 32 v70,2013-06-17 20:30:00,
2013-06-17 16:35:00,77.4,69.6,30.05,East,89,0.0,2.0,77,0.00,,,0.00,Weather View 32 v70,2013-06-17 20:35:00,
2013-06-17 16:40:00,77.4,70.7,30.05,East,89,0.0,2.0,80,0.00,,,0.00,Weather View 32 v70,2013-06-17 20:40:00,
2013-06-17 16:45:00,77.8,69.6,30.05,East,91,0.0,2.0,76,0.00,,,0.00,Weather View 32 v70,2013-06-17 20:45:00,
2013-06-17 16:50:00,77.8,68.4,30.04,East,87,0.0,2.0,73,0.00,,,0.00,Weather View 32 v70,2013-06-17 20:50:00,
2013-06-17 16:55:00,78.3,70.5,30.04,East,91,0.0,2.0,77,0.00,,,0.00,Weather View 32 v70,2013-06-17 20:55:00,
2013-06-17 17:00:00,77.8,70.4,30.05,NNE,12,0.0,2.0,78,0.00,,,0.00,Weather View 32 v70,2013-06-17 21:00:00,
2013-06-17 17:05:00,77.7,70.6,30.05,NNE,17,0.0,2.0,79,0.00,,,0.00,Weather View 32 v70,2013-06-17 21:05:00,
2013-06-17 17:10:00,77.1,68.9,30.05,North,9,0.0,0.0,76,0.00,,,0.00,Weather View 32 v70,2013-06-17 21:10:00,
2013-06-17 17:15:00,77.3,69.5,30.05,North,9,0.0,0.0,77,0.00,,,0.00,Weather View 32 v70,2013-06-17 21:15:00,
2013-06-17 17:20:00,77.6,70.2,30.05,NNE,13,0.0,0.0,78,0.00,,,0.00,Weather View 32 v70,2013-06-17 21:20:00,
2013-06-17 17:25:00,78.0,70.2,30.04,NNE,13,0.0,0.0,77,0.00,,,0.00,Weather View 32 v70,2013-06-17 21:25:00,
2013-06-17 17:30:00,77.8,69.2,30.04,NNE,16,0.0,0.0,75,0.00,,,0.00,Weather View 32 v70,2013-06-17 21:30:00,
2013-06-17 17:35:00,77.9,69.3,30.05,North,10,0.0,0.0,75,0.00,,,0.00,Weather View 32 v70,2013-06-17 21:35:00,
2013-06-17 17:40:00,78.5,71.0,30.05,North,10,0.0,0.0,78,0.00,,,0.00,Weather View 32 v70,2013-06-17 21:40:00,
2013-06-17 17:45:00,78.7,71.6,30.05,North,10,0.0,0.0,79,0.00,,,0.00,Weather View 32 v70,2013-06-17 21:45:00,
2013-06-17 17:50:00,78.7,71.6,30.05,North,10,0.0,0.0,79,0.00,,,0.00,Weather View 32 v70,2013-06-17 21:50:00,
2013-06-17 17:55:00,78.3,70.1,30.05,North,10,0.0,0.0,76,0.00,,,0.00,Weather View 32 v70,2013-06-17 21:55:00,
2013-06-17 18:00:00,78.0,70.2,30.06,North,10,0.0,0.0,77,0.00,,,0.00,Weather View 32 v70,2013-06-17 22:00:00,
2013-06-17 18:06:00,77.5,70.8,30.05,North,10,0.0,0.0,80,0.00,,,0.00,Weather View 32 v70,2013-06-17 22:06:00,
2013-06-17 18:11:00,76.8,70.5,30.05,North,10,0.0,0.0,81,0.00,,,0.00,Weather View 32 v70,2013-06-17 22:11:00,
2013-06-17 18:16:00,76.4,70.5,30.05,North,10,0.0,0.0,82,0.00,,,0.00,Weather View 32 v70,2013-06-17 22:16:00,
2013-06-17 18:21:00,76.3,69.6,30.05,North,7,0.0,0.0,80,0.00,,,0.00,Weather View 32 v70,2013-06-17 22:21:00,
2013-06-17 18:26:00,76.2,69.2,30.04,North,352,0.0,0.0,79,0.00,,,0.00,Weather View 32 v70,2013-06-17 22:26:00,
2013-06-17 18:31:00,76.0,69.4,30.04,North,352,0.0,0.0,80,0.00,,,0.00,Weather View 32 v70,2013-06-17 22:31:00,
2013-06-17 18:36:00,76.0,69.7,30.04,North,352,0.0,0.0,81,0.00,,,0.00,Weather View 32 v70,2013-06-17 22:36:00,
2013-06-17 18:41:00,75.9,70.0,30.04,North,354,0.0,0.0,82,0.00,,,0.00,Weather View 32 v70,2013-06-17 22:41:00,
2013-06-17 18:46:00,75.7,70.5,30.04,North,354,0.0,0.0,84,0.00,,,0.00,Weather View 32 v70,2013-06-17 22:46:00,
2013-06-17 18:51:00,75.4,70.2,30.04,North,354,0.0,0.0,84,0.00,,,0.00,Weather View 32 v70,2013-06-17 22:51:00,
2013-06-17 18:56:00,75.0,70.2,30.04,North,354,0.0,0.0,85,0.00,,,0.00,Weather View 32 v70,2013-06-17 22:56:00,
2013-06-17 19:01:00,74.6,69.8,30.04,North,354,0.0,0.0,85,0.00,,,0.00,Weather View 32 v70,2013-06-17 23:01:00,
2013-06-17 19:06:00,74.3,69.8,30.05,North,354,0.0,0.0,86,0.00,,,0.00,Weather View 32 v70,2013-06-17 23:06:00,
2013-06-17 19:11:00,73.7,69.6,30.04,North,354,0.0,0.0,87,0.00,,,0.00,Weather View 32 v70,2013-06-17 23:11:00,
2013-06-17 19:16:00,73.2,69.1,30.05,North,354,0.0,0.0,87,0.00,,,0.00,Weather View 32 v70,2013-06-17 23:16:00,
2013-06-17 19:21:00,72.9,68.8,30.05,North,354,0.0,0.0,87,0.00,,,0.00,Weather View 32 v70,2013-06-17 23:21:00,
2013-06-17 19:26:00,72.6,68.8,30.05,North,354,0.0,0.0,88,0.00,,,0.00,Weather View 32 v70,2013-06-17 23:26:00,
2013-06-17 19:31:00,72.2,68.8,30.05,North,354,0.0,0.0,89,0.00,,,0.00,Weather View 32 v70,2013-06-17 23:31:00,
2013-06-17 19:36:00,71.9,68.5,30.05,North,354,0.0,0.0,89,0.00,,,0.00,Weather View 32 v70,2013-06-17 23:36:00,
2013-06-17 19:41:00,71.7,68.6,30.05,North,354,0.0,0.0,90,0.00,,,0.00,Weather View 32 v70,2013-06-17 23:41:00,
2013-06-17 19:46:00,71.5,68.7,30.05,North,354,0.0,0.0,91,0.00,,,0.00,Weather View 32 v70,2013-06-17 23:46:00,
2013-06-17 19:51:00,71.4,68.9,30.05,North,354,0.0,0.0,92,0.00,,,0.00,Weather View 32 v70,2013-06-17 23:51:00,
2013-06-17 19:56:00,71.3,68.8,30.05,North,354,0.0,0.0,92,0.00,,,0.00,Weather View 32 v70,2013-06-17 23:56:00,
2013-06-17 20:01:00,71.1,69.0,30.05,North,354,0.0,0.0,93,0.00,,,0.00,Weather View 32 v70,2013-06-18 00:01:00,
2013-06-17 20:06:00,71.0,68.9,30.04,North,354,0.0,0.0,93,0.00,,,0.00,Weather View 32 v70,2013-06-18 00:06:00,
2013-06-17 20:11:00,71.0,69.2,30.05,North,354,0.0,0.0,94,0.00,,,0.00,Weather View 32 v70,2013-06-18 00:11:00,
2013-06-17 20:16:00,70.9,69.4,30.05,North,355,0.0,0.0,95,0.00,,,0.00,Weather View 32 v70,2013-06-18 00:16:00,
2013-06-17 20:21:00,70.7,69.2,30.05,North,356,0.0,0.0,95,0.00,,,0.00,Weather View 32 v70,2013-06-18 00:21:00,
2013-06-17 20:26:00,70.5,69.0,30.05,North,356,0.0,0.0,95,0.00,,,0.00,Weather View 32 v70,2013-06-18 00:26:00,
2013-06-17 20:31:00,70.4,69.2,30.06,North,356,0.0,0.0,96,0.00,,,0.00,Weather View 32 v70,2013-06-18 00:31:00,
2013-06-17 20:36:00,70.2,69.0,30.05,South,185,0.0,0.0,96,0.00,,,0.00,Weather View 32 v70,2013-06-18 00:36:00,
2013-06-17 20:41:00,70.0,68.8,30.06,SSW,200,0.0,0.0,96,0.00,,,0.00,Weather View 32 v70,2013-06-18 00:41:00,
2013-06-17 20:46:00,69.5,68.3,30.06,ENE,66,2.0,7.0,96,0.00,,,0.00,Weather View 32 v70,2013-06-18 00:46:00,
2013-06-17 20:51:00,69.2,68.3,30.05,ESE,102,1.0,7.0,97,0.00,,,0.00,Weather View 32 v70,2013-06-18 00:51:00,
2013-06-17 20:56:00,68.7,67.8,30.05,East,100,0.0,7.0,97,0.00,,,0.00,Weather View 32 v70,2013-06-18 00:56:00,
2013-06-17 21:01:00,68.2,67.3,30.05,South,175,0.0,7.0,97,0.00,,,0.00,Weather View 32 v70,2013-06-18 01:01:00,
2013-06-17 21:06:00,67.8,67.2,30.05,South,175,0.0,7.0,98,0.00,,,0.00,Weather View 32 v70,2013-06-18 01:06:00,
2013-06-17 21:11:00,67.5,67.2,30.05,South,175,0.0,7.0,99,0.00,,,0.00,Weather View 32 v70,2013-06-18 01:11:00,
2013-06-17 21:16:00,67.4,67.1,30.05,South,175,0.0,7.0,99,0.00,,,0.00,Weather View 32 v70,2013-06-18 01:16:00,
2013-06-17 21:21:00,67.1,67.1,30.05,South,175,0.0,7.0,100,0.00,,,0.00,Weather View 32 v70,2013-06-18 01:21:00,
2013-06-17 21:26:00,67.0,67.0,30.05,South,175,0.0,7.0,100,0.00,,,0.00,Weather View 32 v70,2013-06-18 01:26:00,
2013-06-17 21:31:00,66.8,66.8,30.05,South,175,0.0,7.0,100,0.00,,,0.00,Weather View 32 v70,2013-06-18 01:31:00,
2013-06-17 21:36:00,66.7,66.7,30.05,South,174,0.0,7.0,100,0.00,,,0.00,Weather View 32 v70,2013-06-18 01:36:00,
2013-06-17 21:41:00,66.6,66.6,30.06,South,175,0.0,7.0,100,0.00,,,0.00,Weather View 32 v70,2013-06-18 01:41:00,
2013-06-17 21:46:00,66.4,66.4,30.06,South,175,0.0,6.0,100,0.00,,,0.00,Weather View 32 v70,2013-06-18 01:46:00,
2013-06-17 21:51:00,66.2,66.2,30.06,South,175,0.0,5.0,100,0.00,,,0.00,Weather View 32 v70,2013-06-18 01:51:00,
2013-06-17 21:56:00,66.2,66.2,30.06,South,175,0.0,0.0,100,0.00,,,0.00,Weather View 32 v70,2013-06-18 01:56:00,
2013-06-17 22:01:00,66.1,66.1,30.06,South,175,0.0,0.0,100,0.00,,,0.00,Weather View 32 v70,2013-06-18 02:01:00,
2013-06-17 22:06:00,66.0,66.0,30.05,South,175,0.0,0.0,100,0.00,,,0.00,Weather View 32 v70,2013-06-18 02:06:00,
2013-06-17 22:11:00,65.9,65.9,30.05,South,175,0.0,0.0,100,0.00,,,0.00,Weather View 32 v70,2013-06-18 02:11:00,
2013-06-17 22:16:00,65.8,65.8,30.05,South,175,0.0,0.0,100,0.00,,,0.00,Weather View 32 v70,2013-06-18 02:16:00,
2013-06-17 22:21:00,65.6,65.6,30.05,South,175,0.0,0.0,100,0.00,,,0.00,Weather View 32 v70,2013-06-18 02:21:00,
2013-06-17 22:26:00,65.5,65.5,30.05,South,175,0.0,0.0,100,0.01,,,0.01,Weather View 32 v70,2013-06-18 02:26:00,
2013-06-17 22:31:00,65.5,65.5,30.05,South,175,0.0,0.0,100,0.01,,,0.01,Weather View 32 v70,2013-06-18 02:31:00,
2013-06-17 22:36:00,65.4,65.4,30.06,South,175,0.0,0.0,100,0.01,,,0.01,Weather View 32 v70,2013-06-18 02:36:00,
2013-06-17 22:41:00,65.4,65.4,30.06,South,175,0.0,0.0,100,0.01,,,0.01,Weather View 32 v70,2013-06-18 02:41:00,
2013-06-17 22:46:00,65.3,65.3,30.06,South,175,0.0,0.0,100,0.01,,,0.01,Weather View 32 v70,2013-06-18 02:46:00,
2013-06-17 22:51:00,65.3,65.3,30.05,South,175,0.0,0.0,100,0.01,,,0.01,Weather View 32 v70,2013-06-18 02:51:00,
2013-06-17 22:56:00,65.3,65.3,30.06,South,175,0.0,0.0,100,0.01,,,0.01,Weather View 32 v70,2013-06-18 02:56:00,
2013-06-17 23:01:00,65.3,65.3,30.06,South,175,0.0,0.0,100,0.01,,,0.01,Weather View 32 v70,2013-06-18 03:01:00,
2013-06-17 23:06:00,65.3,65.3,30.06,South,175,0.0,0.0,100,0.01,,,0.01,Weather View 32 v70,2013-06-18 03:06:00,
2013-06-17 23:11:00,65.3,65.3,30.06,South,175,0.0,0.0,100,0.01,,,0.01,Weather View 32 v70,2013-06-18 03:11:00,
2013-06-17 23:16:00,65.2,65.2,30.06,South,175,0.0,0.0,100,0.01,,,0.01,Weather View 32 v70,2013-06-18 03:16:00,
2013-06-17 23:21:00,65.1,65.1,30.05,South,175,0.0,0.0,100,0.01,,,0.01,Weather View 32 v70,2013-06-18 03:21:00,
2013-06-17 23:26:00,65.0,65.0,30.06,South,175,0.0,0.0,100,0.00,,,0.01,Weather View 32 v70,2013-06-18 03:26:00,
2013-06-17 23:31:00,65.0,65.0,30.06,South,175,0.0,0.0,100,0.00,,,0.01,Weather View 32 v70,2013-06-18 03:31:00,
2013-06-17 23:36:00,64.9,64.9,30.06,South,175,0.0,0.0,100,0.00,,,0.01,Weather View 32 v70,2013-06-18 03:36:00,
2013-06-17 23:41:00,64.8,64.8,30.05,South,175,0.0,0.0,100,0.00,,,0.01,Weather View 32 v70,2013-06-18 03:41:00,
2013-06-17 23:46:00,64.7,64.7,30.05,South,175,0.0,0.0,100,0.00,,,0.01,Weather View 32 v70,2013-06-18 03:46:00,
2013-06-17 23:51:00,64.7,64.7,30.05,South,175,0.0,0.0,100,0.00,,,0.01,Weather View 32 v70,2013-06-18 03:51:00,
2013-06-17 23:56:00,64.6,64.6,30.05,South,175,0.0,0.0,100,0.00,,,0.01,Weather View 32 v70,2013-06-18 03:56:00,